sensor_id;sensor_type;location;lat;lon;timestamp;pressure;altitude;pressure_sealevel;temperature;humidity
79625;BME280;69101;45.534;10.218;2023-07-20T00:00:58;99353.16;;;30.26;51.50
79625;BME280;69101;45.534;10.218;2023-07-20T00:03:23;99374.34;;;30.23;51.60
79625;BME280;69101;45.534;10.218;2023-07-20T00:05:51;99396.09;;;30.16;51.68
79625;BME280;69101;45.534;10.218;2023-07-20T00:08:17;99393.66;;;30.15;51.72
79625;BME280;69101;45.534;10.218;2023-07-20T00:10:43;99409.00;;;30.14;51.77
79625;BME280;69101;45.534;10.218;2023-07-20T00:13:09;99428.00;;;30.18;51.95
79625;BME280;69101;45.534;10.218;2023-07-20T00:15:35;99439.28;;;30.15;51.80
79625;BME280;69101;45.534;10.218;2023-07-20T00:18:00;99429.88;;;30.07;51.81
79625;BME280;69101;45.534;10.218;2023-07-20T00:20:26;99423.75;;;30.12;51.76
79625;BME280;69101;45.534;10.218;2023-07-20T00:22:51;99405.50;;;30.09;51.91
79625;BME280;69101;45.534;10.218;2023-07-20T00:25:17;99398.53;;;30.03;52.34
79625;BME280;69101;45.534;10.218;2023-07-20T00:27:43;99403.06;;;30.02;51.94
79625;BME280;69101;45.534;10.218;2023-07-20T00:30:09;99421.06;;;30.02;52.09
79625;BME280;69101;45.534;10.218;2023-07-20T00:32:34;99429.91;;;30.02;52.19
79625;BME280;69101;45.534;10.218;2023-07-20T00:35:00;99432.03;;;30.00;52.38
79625;BME280;69101;45.534;10.218;2023-07-20T00:37:25;99411.69;;;29.99;52.16
79625;BME280;69101;45.534;10.218;2023-07-20T00:39:51;99415.72;;;30.02;52.13
79625;BME280;69101;45.534;10.218;2023-07-20T00:42:17;99441.44;;;30.03;52.08
79625;BME280;69101;45.534;10.218;2023-07-20T00:44:42;99417.03;;;29.99;51.58
79625;BME280;69101;45.534;10.218;2023-07-20T00:47:08;99404.69;;;29.93;51.82
79625;BME280;69101;45.534;10.218;2023-07-20T00:49:34;99398.81;;;29.91;51.78
79625;BME280;69101;45.534;10.218;2023-07-20T00:52:00;99400.16;;;29.94;51.63
79625;BME280;69101;45.534;10.218;2023-07-20T00:54:27;99386.22;;;29.92;51.75
79625;BME280;69101;45.534;10.218;2023-07-20T00:56:54;99369.84;;;29.93;51.88
79625;BME280;69101;45.534;10.218;2023-07-20T00:59:20;99376.25;;;29.92;51.76
79625;BME280;69101;45.534;10.218;2023-07-20T01:01:46;99372.25;;;29.90;51.93
79625;BME280;69101;45.534;10.218;2023-07-20T01:04:11;99374.16;;;29.89;52.05
79625;BME280;69101;45.534;10.218;2023-07-20T01:09:16;99352.41;;;29.86;51.98
79625;BME280;69101;45.534;10.218;2023-07-20T01:11:52;99367.97;;;29.84;52.09
79625;BME280;69101;45.534;10.218;2023-07-20T01:14:19;99385.41;;;29.81;52.21
79625;BME280;69101;45.534;10.218;2023-07-20T01:16:45;99403.63;;;29.84;52.23
79625;BME280;69101;45.534;10.218;2023-07-20T01:19:12;99416.50;;;29.87;52.40
79625;BME280;69101;45.534;10.218;2023-07-20T01:21:48;99413.28;;;29.85;52.00
79625;BME280;69101;45.534;10.218;2023-07-20T01:32:09;99417.03;;;29.84;52.69
79625;BME280;69101;45.534;10.218;2023-07-20T01:34:36;99413.81;;;29.82;52.81
79625;BME280;69101;45.534;10.218;2023-07-20T01:37:02;99402.56;;;29.85;52.82
79625;BME280;69101;45.534;10.218;2023-07-20T01:39:28;99395.84;;;29.83;52.59
79625;BME280;69101;45.534;10.218;2023-07-20T01:41:55;99394.78;;;29.84;52.93
79625;BME280;69101;45.534;10.218;2023-07-20T01:44:21;99384.06;;;29.84;52.56
79625;BME280;69101;45.534;10.218;2023-07-20T01:46:46;99358.31;;;29.83;52.75
79625;BME280;69101;45.534;10.218;2023-07-20T01:49:11;99358.31;;;29.83;52.65
79625;BME280;69101;45.534;10.218;2023-07-20T01:51:37;99347.59;;;29.83;52.57
79625;BME280;69101;45.534;10.218;2023-07-20T01:54:02;99341.69;;;29.86;52.13
79625;BME280;69101;45.534;10.218;2023-07-20T01:56:28;99335.53;;;29.85;52.37
79625;BME280;69101;45.534;10.218;2023-07-20T01:58:53;99338.22;;;29.80;52.26
79625;BME280;69101;45.534;10.218;2023-07-20T02:01:18;99339.53;;;29.77;52.65
79625;BME280;69101;45.534;10.218;2023-07-20T02:03:44;99349.22;;;29.79;52.36
79625;BME280;69101;45.534;10.218;2023-07-20T02:06:09;99348.41;;;29.78;52.63
79625;BME280;69101;45.534;10.218;2023-07-20T02:08:34;99347.03;;;29.75;52.38
79625;BME280;69101;45.534;10.218;2023-07-20T02:11:00;99347.56;;;29.77;52.73
79625;BME280;69101;45.534;10.218;2023-07-20T02:13:25;99353.97;;;29.76;52.77
79625;BME280;69101;45.534;10.218;2023-07-20T02:15:50;99348.41;;;29.78;52.42
79625;BME280;69101;45.534;10.218;2023-07-20T02:18:16;99344.59;;;29.74;52.57
79625;BME280;69101;45.534;10.218;2023-07-20T02:20:42;99336.84;;;29.77;52.60
79625;BME280;69101;45.534;10.218;2023-07-20T02:23:07;99335.50;;;29.75;52.56
79625;BME280;69101;45.534;10.218;2023-07-20T02:25:33;99341.91;;;29.74;53.09
79625;BME280;69101;45.534;10.218;2023-07-20T02:27:58;99341.66;;;29.75;52.61
79625;BME280;69101;45.534;10.218;2023-07-20T02:30:24;99336.56;;;29.74;52.72
79625;BME280;69101;45.534;10.218;2023-07-20T02:32:49;99341.16;;;29.73;52.63
79625;BME280;69101;45.534;10.218;2023-07-20T02:35:15;99339.53;;;29.72;53.11
79625;BME280;69101;45.534;10.218;2023-07-20T02:37:40;99334.97;;;29.73;52.64
79625;BME280;69101;45.534;10.218;2023-07-20T02:40:06;99333.88;;;29.74;52.69
79625;BME280;69101;45.534;10.218;2023-07-20T02:42:33;99327.75;;;29.73;52.87
79625;BME280;69101;45.534;10.218;2023-07-20T02:44:58;99328.00;;;29.72;52.87
79625;BME280;69101;45.534;10.218;2023-07-20T02:47:23;99322.09;;;29.70;52.81
79625;BME280;69101;45.534;10.218;2023-07-20T02:49:49;99329.09;;;29.71;52.75
79625;BME280;69101;45.534;10.218;2023-07-20T02:52:14;99336.03;;;29.72;52.69
79625;BME280;69101;45.534;10.218;2023-07-20T02:54:40;99328.28;;;29.70;53.03
79625;BME280;69101;45.534;10.218;2023-07-20T02:57:05;99329.09;;;29.71;52.61
79625;BME280;69101;45.534;10.218;2023-07-20T02:59:31;99329.59;;;29.73;52.38
79625;BME280;69101;45.534;10.218;2023-07-20T03:01:56;99326.13;;;29.72;52.05
79625;BME280;69101;45.534;10.218;2023-07-20T03:04:23;99329.09;;;29.71;52.29
79625;BME280;69101;45.534;10.218;2023-07-20T03:06:49;99332.81;;;29.70;52.23
79625;BME280;69101;45.534;10.218;2023-07-20T03:09:14;99334.97;;;29.68;52.52
79625;BME280;69101;45.534;10.218;2023-07-20T03:11:40;99340.34;;;29.68;52.38
79625;BME280;69101;45.534;10.218;2023-07-20T03:14:06;99335.50;;;29.65;52.56
79625;BME280;69101;45.534;10.218;2023-07-20T03:16:31;99343.53;;;29.65;52.62
79625;BME280;69101;45.534;10.218;2023-07-20T03:18:59;99343.28;;;29.66;52.61
79625;BME280;69101;45.534;10.218;2023-07-20T03:21:25;99346.50;;;29.68;52.20
79625;BME280;69101;45.534;10.218;2023-07-20T03:23:50;99347.84;;;29.66;52.75
79625;BME280;69101;45.534;10.218;2023-07-20T03:26:16;99347.84;;;29.66;52.68
79625;BME280;69101;45.534;10.218;2023-07-20T03:28:41;99354.28;;;29.70;52.33
79625;BME280;69101;45.534;10.218;2023-07-20T03:31:06;99358.00;;;29.69;52.47
79625;BME280;69101;45.534;10.218;2023-07-20T03:33:32;99357.47;;;29.67;52.37
79625;BME280;69101;45.534;10.218;2023-07-20T03:35:58;99356.13;;;29.69;52.39
79625;BME280;69101;45.534;10.218;2023-07-20T03:38:24;99357.47;;;29.67;52.66
79625;BME280;69101;45.534;10.218;2023-07-20T03:40:57;99356.41;;;29.68;52.91
79625;BME280;69101;45.534;10.218;2023-07-20T03:43:24;99356.66;;;29.66;52.52
79625;BME280;69101;45.534;10.218;2023-07-20T03:45:50;99360.69;;;29.69;52.61
79625;BME280;69101;45.534;10.218;2023-07-20T03:48:17;99358.56;;;29.66;52.72
79625;BME280;69101;45.534;10.218;2023-07-20T03:50:47;99353.22;;;29.66;53.16
79625;BME280;69101;45.534;10.218;2023-07-20T03:53:13;99358.00;;;29.69;52.64
79625;BME280;69101;45.534;10.218;2023-07-20T03:55:40;99355.88;;;29.66;52.80
79625;BME280;69101;45.534;10.218;2023-07-20T03:58:07;99362.31;;;29.65;53.19
79625;BME280;69101;45.534;10.218;2023-07-20T04:00:32;99364.19;;;29.64;53.16
79625;BME280;69101;45.534;10.218;2023-07-20T04:02:57;99358.00;;;29.64;52.95
79625;BME280;69101;45.534;10.218;2023-07-20T04:05:24;99360.44;;;29.60;53.23
79625;BME280;69101;45.534;10.218;2023-07-20T04:07:49;99352.13;;;29.62;53.38
79625;BME280;69101;45.534;10.218;2023-07-20T04:10:14;99353.19;;;29.61;53.13
79625;BME280;69101;45.534;10.218;2023-07-20T04:12:40;99360.97;;;29.62;52.93
79625;BME280;69101;45.534;10.218;2023-07-20T04:15:05;99355.84;;;29.61;53.01
79625;BME280;69101;45.534;10.218;2023-07-20T04:17:31;99357.75;;;29.60;53.40
79625;BME280;69101;45.534;10.218;2023-07-20T04:19:56;99355.84;;;29.61;53.26
79625;BME280;69101;45.534;10.218;2023-07-20T04:22:22;99353.75;;;29.63;53.25
79625;BME280;69101;45.534;10.218;2023-07-20T04:24:47;99348.38;;;29.63;52.97
79625;BME280;69101;45.534;10.218;2023-07-20T04:27:13;99356.66;;;29.61;53.02
79625;BME280;69101;45.534;10.218;2023-07-20T04:29:38;99349.44;;;29.62;52.99
79625;BME280;69101;45.534;10.218;2023-07-20T04:32:04;99352.13;;;29.62;53.46
79625;BME280;69101;45.534;10.218;2023-07-20T04:34:29;99349.97;;;29.59;53.15
79625;BME280;69101;45.534;10.218;2023-07-20T04:36:55;99349.97;;;29.59;53.47
79625;BME280;69101;45.534;10.218;2023-07-20T04:39:20;99353.75;;;29.58;53.35
79625;BME280;69101;45.534;10.218;2023-07-20T04:41:45;99345.69;;;29.58;53.06
79625;BME280;69101;45.534;10.218;2023-07-20T04:44:10;99355.31;;;29.59;53.21
79625;BME280;69101;45.534;10.218;2023-07-20T04:46:36;99356.41;;;29.63;53.43
79625;BME280;69101;45.534;10.218;2023-07-20T04:49:01;99360.69;;;29.64;53.14
79625;BME280;69101;45.534;10.218;2023-07-20T04:51:27;99349.72;;;29.65;52.97
79625;BME280;69101;45.534;10.218;2023-07-20T04:53:55;99361.25;;;29.66;53.22
79625;BME280;69101;45.534;10.218;2023-07-20T04:56:21;99358.28;;;29.67;53.03
79625;BME280;69101;45.534;10.218;2023-07-20T04:58:48;99358.28;;;29.67;52.90
79625;BME280;69101;45.534;10.218;2023-07-20T05:01:13;99355.06;;;29.70;52.96
79625;BME280;69101;45.534;10.218;2023-07-20T05:03:39;99361.50;;;29.74;52.64
79625;BME280;69101;45.534;10.218;2023-07-20T05:06:04;99367.66;;;29.75;52.65
79625;BME280;69101;45.534;10.218;2023-07-20T05:08:29;99359.34;;;29.76;52.95
79625;BME280;69101;45.534;10.218;2023-07-20T05:10:55;99356.16;;;29.80;52.79
79625;BME280;69101;45.534;10.218;2023-07-20T05:13:20;99350.28;;;29.83;52.45
79625;BME280;69101;45.534;10.218;2023-07-20T05:15:45;99350.81;;;29.85;52.41
79625;BME280;69101;45.534;10.218;2023-07-20T05:18:11;99361.81;;;29.88;52.55
79625;BME280;69101;45.534;10.218;2023-07-20T05:20:37;99372.00;;;29.91;52.32
79625;BME280;69101;45.534;10.218;2023-07-20T05:23:02;99372.00;;;29.96;52.48
79625;BME280;69101;45.534;10.218;2023-07-20T05:25:28;99372.53;;;29.98;52.30
79625;BME280;69101;45.534;10.218;2023-07-20T05:27:53;99372.78;;;30.02;52.14
79625;BME280;69101;45.534;10.218;2023-07-20T05:30:20;99373.56;;;30.02;52.25
79625;BME280;69101;45.534;10.218;2023-07-20T05:32:46;99378.91;;;29.52;52.71
79625;BME280;69101;45.534;10.218;2023-07-20T05:35:16;99378.28;;;29.14;53.85
79625;BME280;69101;45.534;10.218;2023-07-20T05:37:42;99381.47;;;29.06;53.15
79625;BME280;69101;45.534;10.218;2023-07-20T05:40:07;99380.78;;;28.69;54.11
79625;BME280;69101;45.534;10.218;2023-07-20T05:42:33;99381.25;;;28.09;58.84
79625;BME280;69101;45.534;10.218;2023-07-20T05:44:59;99389.16;;;27.99;59.35
79625;BME280;69101;45.534;10.218;2023-07-20T05:47:24;99392.03;;;27.92;59.60
79625;BME280;69101;45.534;10.218;2023-07-20T05:49:50;99399.47;;;27.59;61.57
79625;BME280;69101;45.534;10.218;2023-07-20T05:52:15;99391.28;;;27.65;61.55
79625;BME280;69101;45.534;10.218;2023-07-20T05:54:41;99393.91;;;27.60;60.91
79625;BME280;69101;45.534;10.218;2023-07-20T05:57:07;99398.31;;;27.76;59.70
79625;BME280;69101;45.534;10.218;2023-07-20T05:59:32;99396.88;;;27.95;58.75
79625;BME280;69101;45.534;10.218;2023-07-20T06:01:58;99398.34;;;27.81;60.72
79625;BME280;69101;45.534;10.218;2023-07-20T06:04:23;99398.84;;;28.05;59.35
79625;BME280;69101;45.534;10.218;2023-07-20T06:06:49;99394.13;;;28.22;58.73
79625;BME280;69101;45.534;10.218;2023-07-20T06:09:14;99381.59;;;28.28;58.87
79625;BME280;69101;45.534;10.218;2023-07-20T06:11:40;99396.78;;;28.59;58.24
79625;BME280;69101;45.534;10.218;2023-07-20T06:14:05;99388.28;;;28.67;57.66
79625;BME280;69101;45.534;10.218;2023-07-20T06:16:31;99393.38;;;28.74;57.61
79625;BME280;69101;45.534;10.218;2023-07-20T06:18:56;99392.56;;;28.63;57.55
79625;BME280;69101;45.534;10.218;2023-07-20T06:21:22;99389.84;;;28.16;59.81
79625;BME280;69101;45.534;10.218;2023-07-20T06:23:47;99387.78;;;27.96;60.24
79625;BME280;69101;45.534;10.218;2023-07-20T06:26:13;99382.69;;;28.27;59.22
79625;BME280;69101;45.534;10.218;2023-07-20T06:28:38;99398.66;;;27.85;60.73
79625;BME280;69101;45.534;10.218;2023-07-20T06:31:03;99399.50;;;27.90;60.67
79625;BME280;69101;45.534;10.218;2023-07-20T06:33:29;99399.00;;;28.30;59.63
79625;BME280;69101;45.534;10.218;2023-07-20T06:35:55;99404.97;;;28.37;58.90
79625;BME280;69101;45.534;10.218;2023-07-20T06:38:22;99403.47;;;28.20;60.09
79625;BME280;69101;45.534;10.218;2023-07-20T06:40:49;99402.47;;;28.26;59.34
79625;BME280;69101;45.534;10.218;2023-07-20T06:43:14;99396.59;;;28.29;59.50
79625;BME280;69101;45.534;10.218;2023-07-20T06:45:40;99395.50;;;28.25;59.40
79625;BME280;69101;45.534;10.218;2023-07-20T06:48:05;99388.25;;;28.20;59.70
79625;BME280;69101;45.534;10.218;2023-07-20T06:50:31;99396.66;;;28.02;60.23
79625;BME280;69101;45.534;10.218;2023-07-20T06:52:56;99398.53;;;27.70;61.33
79625;BME280;69101;45.534;10.218;2023-07-20T06:55:22;99393.91;;;27.60;60.97
79625;BME280;69101;45.534;10.218;2023-07-20T06:57:48;99401.56;;;27.78;59.86
79625;BME280;69101;45.534;10.218;2023-07-20T07:00:13;99401.56;;;27.78;59.74
79625;BME280;69101;45.534;10.218;2023-07-20T07:02:39;99398.06;;;28.10;59.02
79625;BME280;69101;45.534;10.218;2023-07-20T07:05:05;99401.19;;;28.38;58.07
79625;BME280;69101;45.534;10.218;2023-07-20T07:07:31;99405.53;;;28.44;57.88
79625;BME280;69101;45.534;10.218;2023-07-20T07:09:57;99401.28;;;28.07;58.73
79625;BME280;69101;45.534;10.218;2023-07-20T07:12:22;99403.16;;;27.79;59.86
79625;BME280;69101;45.534;10.218;2023-07-20T07:14:48;99407.47;;;27.85;60.03
79625;BME280;69101;45.534;10.218;2023-07-20T07:17:13;99400.91;;;27.98;59.61
79625;BME280;69101;45.534;10.218;2023-07-20T07:19:39;99404.22;;;28.10;59.37
79625;BME280;69101;45.534;10.218;2023-07-20T07:22:06;99401.69;;;27.93;59.65
79625;BME280;69101;45.534;10.218;2023-07-20T07:24:31;99397.63;;;28.23;58.71
79625;BME280;69101;45.534;10.218;2023-07-20T07:27:02;99403.38;;;28.05;59.43
79625;BME280;69101;45.534;10.218;2023-07-20T07:29:27;99401.38;;;28.22;58.87
79625;BME280;69101;45.534;10.218;2023-07-20T07:31:53;99402.31;;;28.06;59.41
79625;BME280;69101;45.534;10.218;2023-07-20T07:34:18;99410.97;;;28.18;60.14
79625;BME280;69101;45.534;10.218;2023-07-20T07:36:44;99413.19;;;28.31;59.54
79625;BME280;69101;45.534;10.218;2023-07-20T07:39:10;99407.28;;;28.24;60.44
79625;BME280;69101;45.534;10.218;2023-07-20T07:41:35;99409.31;;;28.53;59.16
79625;BME280;69101;45.534;10.218;2023-07-20T07:44:01;99408.53;;;28.53;59.07
79625;BME280;69101;45.534;10.218;2023-07-20T07:46:26;99408.25;;;28.54;59.01
79625;BME280;69101;45.534;10.218;2023-07-20T07:48:51;99393.03;;;28.60;58.97
79625;BME280;69101;45.534;10.218;2023-07-20T07:51:17;99402.72;;;28.66;59.44
79625;BME280;69101;45.534;10.218;2023-07-20T07:53:42;99403.81;;;28.70;59.79
79625;BME280;69101;45.534;10.218;2023-07-20T07:56:08;99404.38;;;28.77;59.58
79625;BME280;69101;45.534;10.218;2023-07-20T07:58:34;99408.44;;;28.90;58.78
79625;BME280;69101;45.534;10.218;2023-07-20T08:01:00;99410.31;;;28.84;58.83
79625;BME280;69101;45.534;10.218;2023-07-20T08:03:25;99419.88;;;28.65;59.32
79625;BME280;69101;45.534;10.218;2023-07-20T08:05:53;99418.09;;;28.44;60.03
79625;BME280;69101;45.534;10.218;2023-07-20T08:08:18;99413.31;;;28.51;60.50
79625;BME280;69101;45.534;10.218;2023-07-20T08:10:44;99413.03;;;28.47;60.69
79625;BME280;69101;45.534;10.218;2023-07-20T08:13:09;99419.88;;;28.70;60.06
79625;BME280;69101;45.534;10.218;2023-07-20T08:15:35;99420.50;;;28.87;59.61
79625;BME280;69101;45.534;10.218;2023-07-20T08:18:00;99424.84;;;28.98;58.73
79625;BME280;69101;45.534;10.218;2023-07-20T08:20:25;99430.38;;;28.82;59.03
79625;BME280;69101;45.534;10.218;2023-07-20T08:22:55;99435.00;;;28.96;58.65
79625;BME280;69101;45.534;10.218;2023-07-20T08:25:21;99440.56;;;28.85;59.07
79625;BME280;69101;45.534;10.218;2023-07-20T08:27:46;99437.53;;;28.71;58.86
79625;BME280;69101;45.534;10.218;2023-07-20T08:30:12;99439.13;;;28.67;59.17
79625;BME280;69101;45.534;10.218;2023-07-20T08:32:38;99430.28;;;28.67;58.86
79625;BME280;69101;45.534;10.218;2023-07-20T08:35:03;99435.69;;;28.77;58.81
79625;BME280;69101;45.534;10.218;2023-07-20T08:37:29;99439.22;;;28.82;58.50
79625;BME280;69101;45.534;10.218;2023-07-20T08:39:54;99436.56;;;28.87;57.90
79625;BME280;69101;45.534;10.218;2023-07-20T08:42:20;99432.31;;;28.96;57.77
79625;BME280;69101;45.534;10.218;2023-07-20T08:44:48;99432.88;;;29.03;56.86
79625;BME280;69101;45.534;10.218;2023-07-20T08:47:15;99431.44;;;28.76;57.51
79625;BME280;69101;45.534;10.218;2023-07-20T08:49:41;99440.84;;;28.88;57.00
79625;BME280;69101;45.534;10.218;2023-07-20T08:52:07;99438.97;;;28.84;57.45
79625;BME280;69101;45.534;10.218;2023-07-20T08:54:33;99436.81;;;28.81;57.35
79625;BME280;69101;45.534;10.218;2023-07-20T08:57:02;99439.91;;;28.63;56.95
79625;BME280;69101;45.534;10.218;2023-07-20T08:59:28;99436.91;;;28.59;58.22
79625;BME280;69101;45.534;10.218;2023-07-20T09:01:55;99438.88;;;28.74;57.98
79625;BME280;69101;45.534;10.218;2023-07-20T09:04:21;99437.63;;;28.81;57.59
79625;BME280;69101;45.534;10.218;2023-07-20T09:06:49;99436.81;;;28.86;56.27
79625;BME280;69101;45.534;10.218;2023-07-20T09:09:15;99435.50;;;28.88;56.20
79625;BME280;69101;45.534;10.218;2023-07-20T09:11:41;99438.75;;;29.00;56.07
79625;BME280;69101;45.534;10.218;2023-07-20T09:14:07;99440.34;;;28.96;55.55
79625;BME280;69101;45.534;10.218;2023-07-20T09:16:47;99434.78;;;29.13;55.82
79625;BME280;69101;45.534;10.218;2023-07-20T09:19:15;99435.53;;;28.93;55.13
79625;BME280;69101;45.534;10.218;2023-07-20T09:21:41;99432.91;;;29.08;54.74
79625;BME280;69101;45.534;10.218;2023-07-20T09:24:06;99431.78;;;29.04;55.24
79625;BME280;69101;45.534;10.218;2023-07-20T09:26:40;99429.16;;;29.09;54.95
79625;BME280;69101;45.534;10.218;2023-07-20T09:29:07;99430.03;;;29.25;54.18
79625;BME280;69101;45.534;10.218;2023-07-20T09:31:33;99431.56;;;29.06;54.73
79625;BME280;69101;45.534;10.218;2023-07-20T09:33:59;99433.50;;;29.21;54.80
79625;BME280;69101;45.534;10.218;2023-07-20T09:36:26;99426.31;;;29.31;55.07
79625;BME280;69101;45.534;10.218;2023-07-20T09:38:52;99425.78;;;29.34;54.62
79625;BME280;69101;45.534;10.218;2023-07-20T09:41:18;99431.16;;;29.39;54.38
79625;BME280;69101;45.534;10.218;2023-07-20T09:43:43;99424.44;;;29.37;54.85
79625;BME280;69101;45.534;10.218;2023-07-20T09:46:10;99424.97;;;29.34;54.28
79625;BME280;69101;45.534;10.218;2023-07-20T09:48:35;99425.50;;;29.36;54.11
79625;BME280;69101;45.534;10.218;2023-07-20T09:51:01;99415.59;;;29.36;52.96
79625;BME280;69101;45.534;10.218;2023-07-20T09:53:27;99423.91;;;29.35;53.31
79625;BME280;69101;45.534;10.218;2023-07-20T09:55:53;99424.97;;;29.29;52.89
79625;BME280;69101;45.534;10.218;2023-07-20T09:58:19;99415.63;;;29.46;52.60
79625;BME280;69101;45.534;10.218;2023-07-20T10:00:45;99412.41;;;29.39;52.00
79625;BME280;69101;45.534;10.218;2023-07-20T10:03:20;99414.53;;;29.37;51.67
79625;BME280;69101;45.534;10.218;2023-07-20T10:05:54;99408.91;;;29.44;51.57
79625;BME280;69101;45.534;10.218;2023-07-20T10:08:24;99406.50;;;29.42;51.77
79625;BME280;69101;45.534;10.218;2023-07-20T10:10:50;99407.59;;;29.56;51.59
79625;BME280;69101;45.534;10.218;2023-07-20T10:13:18;99407.88;;;29.55;51.30
79625;BME280;69101;45.534;10.218;2023-07-20T10:15:53;99400.13;;;29.63;51.38
79625;BME280;69101;45.534;10.218;2023-07-20T10:18:29;99404.91;;;29.61;51.20
79625;BME280;69101;45.534;10.218;2023-07-20T10:20:56;99396.06;;;29.61;51.38
79625;BME280;69101;45.534;10.218;2023-07-20T10:23:24;99392.84;;;29.59;51.63
79625;BME280;69101;45.534;10.218;2023-07-20T10:25:50;99395.81;;;29.62;51.99
79625;BME280;69101;45.534;10.218;2023-07-20T10:28:16;99396.06;;;29.61;52.15
79625;BME280;69101;45.534;10.218;2023-07-20T10:30:42;99387.78;;;29.62;52.32
79625;BME280;69101;45.534;10.218;2023-07-20T10:33:08;99399.31;;;29.68;51.69
79625;BME280;69101;45.534;10.218;2023-07-20T10:36:03;99395.00;;;29.67;50.63
79625;BME280;69101;45.534;10.218;2023-07-20T10:41:22;99392.84;;;29.69;49.98
79625;BME280;69101;45.534;10.218;2023-07-20T10:43:50;99395.53;;;29.69;50.10
79625;BME280;69101;45.534;10.218;2023-07-20T10:46:43;99389.41;;;29.68;50.19
79625;BME280;69101;45.534;10.218;2023-07-20T10:49:13;99383.25;;;29.78;50.01
79625;BME280;69101;45.534;10.218;2023-07-20T10:51:47;99382.16;;;29.84;50.02
79625;BME280;69101;45.534;10.218;2023-07-20T10:56:42;99377.34;;;29.86;50.16
79625;BME280;69101;45.534;10.218;2023-07-20T11:01:48;99374.69;;;29.86;50.24
79625;BME280;69101;45.534;10.218;2023-07-20T11:04:16;99375.47;;;29.87;50.00
79625;BME280;69101;45.534;10.218;2023-07-20T11:06:46;99370.91;;;29.87;50.70
79625;BME280;69101;45.534;10.218;2023-07-20T11:09:13;99370.13;;;29.92;50.96
79625;BME280;69101;45.534;10.218;2023-07-20T11:11:43;99370.38;;;29.95;50.87
79625;BME280;69101;45.534;10.218;2023-07-20T11:14:11;99359.94;;;29.89;49.81
79625;BME280;69101;45.534;10.218;2023-07-20T11:16:47;99358.06;;;29.89;49.64
79625;BME280;69101;45.534;10.218;2023-07-20T11:19:23;99359.13;;;29.93;49.50
79625;BME280;69101;45.534;10.218;2023-07-20T11:21:53;99359.13;;;29.88;49.02
79625;BME280;69101;45.534;10.218;2023-07-20T11:24:19;99355.63;;;29.88;49.45
79625;BME280;69101;45.534;10.218;2023-07-20T11:26:48;99346.22;;;29.95;49.90
79625;BME280;69101;45.534;10.218;2023-07-20T11:29:16;99348.66;;;29.97;50.17
79625;BME280;69101;45.534;10.218;2023-07-20T11:31:43;99343.28;;;30.02;49.98
79625;BME280;69101;45.534;10.218;2023-07-20T11:34:15;99338.47;;;30.04;49.64
79625;BME280;69101;45.534;10.218;2023-07-20T11:36:43;99338.16;;;30.05;49.79
79625;BME280;69101;45.534;10.218;2023-07-20T11:39:10;99343.00;;;30.08;49.38
79625;BME280;69101;45.534;10.218;2023-07-20T11:41:36;99337.63;;;30.08;48.44
79625;BME280;69101;45.534;10.218;2023-07-20T11:44:01;99331.22;;;30.09;48.49
79625;BME280;69101;45.534;10.218;2023-07-20T11:46:28;99332.78;;;30.10;48.98
79625;BME280;69101;45.534;10.218;2023-07-20T11:49:00;99342.47;;;30.06;48.79
79625;BME280;69101;45.534;10.218;2023-07-20T11:51:29;99331.47;;;30.08;49.16
79625;BME280;69101;45.534;10.218;2023-07-20T11:53:55;99324.50;;;30.07;49.31
79625;BME280;69101;45.534;10.218;2023-07-20T11:56:23;99332.78;;;30.10;49.16
79625;BME280;69101;45.534;10.218;2023-07-20T11:58:48;99328.53;;;30.09;49.52
79625;BME280;69101;45.534;10.218;2023-07-20T12:01:14;99316.72;;;30.05;49.20
79625;BME280;69101;45.534;10.218;2023-07-20T12:03:41;99323.69;;;30.11;49.09
79625;BME280;69101;45.534;10.218;2023-07-20T12:06:10;99326.91;;;30.13;49.43
79625;BME280;69101;45.534;10.218;2023-07-20T12:08:43;99327.69;;;30.14;49.35
79625;BME280;69101;45.534;10.218;2023-07-20T12:11:09;99325.03;;;30.14;49.18
79625;BME280;69101;45.534;10.218;2023-07-20T12:13:44;99308.94;;;30.14;49.15
79625;BME280;69101;45.534;10.218;2023-07-20T12:16:19;99316.16;;;30.18;49.04
79625;BME280;69101;45.534;10.218;2023-07-20T12:18:45;99312.13;;;30.16;48.28
79625;BME280;69101;45.534;10.218;2023-07-20T12:21:10;99315.09;;;30.19;48.65
79625;BME280;69101;45.534;10.218;2023-07-20T12:23:42;99312.94;;;30.21;48.88
79625;BME280;69101;45.534;10.218;2023-07-20T12:26:10;99305.16;;;30.20;48.36
79625;BME280;69101;45.534;10.218;2023-07-20T12:28:40;99313.47;;;30.18;47.69
79625;BME280;69101;45.534;10.218;2023-07-20T12:31:06;99301.38;;;30.21;48.28
79625;BME280;69101;45.534;10.218;2023-07-20T12:33:32;99298.97;;;30.24;48.48
79625;BME280;69101;45.534;10.218;2023-07-20T12:35:57;99291.47;;;30.21;47.97
79625;BME280;69101;45.534;10.218;2023-07-20T12:38:24;99290.94;;;30.24;47.73
79625;BME280;69101;45.534;10.218;2023-07-20T12:40:50;99297.88;;;30.25;48.31
79625;BME280;69101;45.534;10.218;2023-07-20T12:43:16;99289.06;;;30.25;48.05
79625;BME280;69101;45.534;10.218;2023-07-20T12:45:42;99280.19;;;30.24;48.23
79625;BME280;69101;45.534;10.218;2023-07-20T12:48:07;99269.69;;;30.28;47.43
79625;BME280;69101;45.534;10.218;2023-07-20T12:50:33;99279.66;;;30.27;47.42
79625;BME280;69101;45.534;10.218;2023-07-20T12:52:58;99277.50;;;30.29;47.21
79625;BME280;69101;45.534;10.218;2023-07-20T12:55:23;99268.09;;;30.27;46.15
79625;BME280;69101;45.534;10.218;2023-07-20T12:57:49;99275.88;;;30.28;46.44
79625;BME280;69101;45.534;10.218;2023-07-20T13:00:15;99268.34;;;30.30;46.98
79625;BME280;69101;45.534;10.218;2023-07-20T13:02:41;99270.78;;;30.32;47.75
79625;BME280;69101;45.534;10.218;2023-07-20T13:05:07;99271.59;;;30.32;46.78